»·PEaware :: N9298L KUAO-KSLE

N9298L :: KUAO-KSLE

FLIGHT INFORMATION

Flight Status: Arrived
Operator: Privately registered:
United States
More flights under this callsign
Pilot: Brendan O. (14500)
Aircraft: PIPER PA-32 SARATOGA
(PA32)
More flights by this aircraft type
Origin: KUAO Aurora State
United States
Destination: KSLE McNary
United States
More flights between these airports :: More routes between these airports
Route: UBG2 UBG
File this flight plan on PilotEdge
Remarks:
Altitude:
(Current/Filed)
4,000ft
Speed:
(Current/Filed)
145kts
Departed: 06-Dec-17 08:44 AM
Arrived: 06-Dec-17 09:28 AM
Distance/Time
Traveled:
23nm/0:44
Distance/Time
To Go:
Arrived

Flight Plot

Page will automatically refresh every two minutes.

Flight plan parsing failed; only flown route is shown


Map Options




Map Legend


Flown Route
Filed Route
Departure Airport
Arrival Airport
Navaid (VOR, NDB)
Fix

Horizontal Profiles

Position Reports

Time Latitude Longitude Heading Altitude Ground
Speed
06-Dec-17 08:38 45.253765 -122.768865 187 199ft 0kts
06-Dec-17 08:39 45.253765 -122.768865 187 199ft 0kts
06-Dec-17 08:40 45.253765 -122.768865 187 199ft 0kts
06-Dec-17 08:41 45.253765 -122.768865 187 199ft 0kts
06-Dec-17 08:42 45.253765 -122.768865 187 199ft 0kts
06-Dec-17 08:43 45.253765 -122.768865 187 199ft 0kts
06-Dec-17 08:44 45.253765 -122.768865 187 199ft 0kts
06-Dec-17 08:45 45.253765 -122.768865 187 199ft 0kts
06-Dec-17 08:46 45.253765 -122.768865 187 199ft 0kts
06-Dec-17 08:47 45.253765 -122.768865 187 199ft 0kts
06-Dec-17 08:48 45.253765 -122.768865 187 199ft 0kts
06-Dec-17 08:49 45.252740 -122.769052 187 199ft 47kts
06-Dec-17 08:50 45.228361 -122.785069 271 890ft 122kts
06-Dec-17 08:51 45.252711 -122.818144 312 1641ft 125kts
06-Dec-17 08:52 45.277060 -122.854890 312 2340ft 129kts
06-Dec-17 08:53 45.299999 -122.892806 309 3081ft 129kts
06-Dec-17 08:54 45.322923 -122.930915 309 3470ft 147kts
06-Dec-17 08:55 45.348117 -122.976348 301 3421ft 146kts
06-Dec-17 08:56 45.328380 -123.011339 174 3158ft 156kts
06-Dec-17 08:57 45.287394 -123.017424 207 2547ft 145kts
06-Dec-17 08:58 45.253916 -123.041505 204 2476ft 131kts
06-Dec-17 08:59 45.227128 -123.059165 206 2433ft 125kts
06-Dec-17 09:01 45.188658 -123.082839 201 2560ft 136kts
06-Dec-17 09:01 45.159793 -123.103020 207 2579ft 140kts
06-Dec-17 09:03 45.117074 -123.129585 202 2499ft 144kts
06-Dec-17 09:04 45.079274 -123.144030 160 2266ft 149kts
06-Dec-17 09:04 45.050559 -123.115339 146 1680ft 154kts
06-Dec-17 09:05 45.015353 -123.087591 151 1600ft 141kts
06-Dec-17 09:06 44.983146 -123.059401 143 1399ft 118kts
06-Dec-17 09:07 44.954908 -123.037293 152 357ft 107kts
06-Dec-17 09:08 44.926950 -123.015461 151 635ft 120kts
06-Dec-17 09:09 44.917759 -123.008568 152 931ft 113kts
06-Dec-17 09:11 44.901885 -122.995617 145 1870ft 119kts
06-Dec-17 09:11 44.879064 -122.975713 154 3006ft 129kts
06-Dec-17 09:12 44.847521 -122.950900 147 4099ft 129kts
06-Dec-17 09:13 44.812674 -122.923651 141 4022ft 143kts
06-Dec-17 09:14 44.797010 -122.874034 104 3857ft 135kts
06-Dec-17 09:15 44.770051 -122.865031 243 3962ft 127kts
06-Dec-17 09:16 44.786848 -122.901893 325 3974ft 129kts
06-Dec-17 09:17 44.816865 -122.929408 328 3969ft 133kts
06-Dec-17 09:18 44.848434 -122.957442 330 3872ft 134kts
06-Dec-17 09:19 44.881035 -122.980840 334 3900ft 130kts
06-Dec-17 09:20 44.913404 -123.004351 330 3939ft 130kts
06-Dec-17 09:21 44.944432 -123.032294 326 3925ft 133kts
06-Dec-17 09:22 44.976389 -123.057271 335 3994ft 131kts
06-Dec-17 09:23 45.009648 -123.081676 330 3726ft 136kts
06-Dec-17 09:24 45.036050 -123.117170 286 3267ft 137kts
06-Dec-17 09:25 45.041995 -123.169708 282 2977ft 130kts
06-Dec-17 09:26 45.065736 -123.181878 53 2936ft 119kts
06-Dec-17 09:27 45.060355 -123.134586 109 2880ft 127kts
06-Dec-17 09:28 45.033126 -123.102171 149 2194ft 135kts
06-Dec-17 09:29 45.002556 -123.077139 147 2117ft 125kts
06-Dec-17 09:30 44.971476 -123.051672 149 1461ft 133kts
06-Dec-17 09:31 44.941824 -123.027131 147 848ft 120kts
06-Dec-17 09:32 44.913574 -123.004591 150 203ft 95kts
06-Dec-17 09:33 44.909051 -123.004313 272 203ft 12kts
06-Dec-17 09:34 44.908935 -123.005947 241 201ft 20kts

Navigation Log

Ident Type
Flight plan parsing failed, navigation log unavailable